首页
METAR-TAF:

METAR-TAF

机场 :

墨爾本機場

墨尔本, 澳大利亚

纬度: 37-40-24S, 经度: 144-50-36E, 海拔: 132米

当前天气观测

该预报发布于21分钟前的05:00 UTC
风速19节,风向
温度 27°C
湿度 28%
气压 1009 hPa
能见度10公里或以上
1500米以下无云,无积雨云

METAR: YMML 190500Z 01019KT CAVOK 27/07 Q1009 FM0500 MOD TURB BLW 5000FT

时间: 16:21 (05:21 UTC)

预报

该预报发布于6小时和1分钟前的23:20 UTC
预报有效从19日的 00点(UTC)到 20日的 06点(UTC)
风速22节,风向,有时为34节阵风
能见度10公里或以上
1500米以下无云,无积雨云
从 19日的 0700点(UTC)
风速16节,风向,有时为26节阵风
能见度10公里或以上
1500米以下无云,无积雨云
从 19日的 1400点(UTC)
风速18节,风向西转西南,有时为32节阵风
能见度10公里或以上
1500米以下无云,无积雨云
从 19日的 1600点(UTC)
风速14节,风向西转西南
能见度10公里或以上
散云层高于1500英尺
多云层高于3000英尺
小阵雨
从 19日的 2200点(UTC)
风速12节,风向南转西南
能見度: 4000
少量云层高于2500英尺
多云层高于3500英尺
多云层高于1500英尺
小阵雨, 阵雨

TAF: YMML 182320Z 1900/2006 36022G34KT CAVOK FM190700 01016G26KT CAVOK FM191400 24018G32KT CAVOK FM191600 24014KT 9999 -SHRA SCT015 BKN030 FM192200 21012KT 9999 -SHRA FEW025 BKN035 INTER 1918/1922 4000 SHRA BKN015

超过4000个机场的气象观测和天气预报(METAR&TAF报告)。

可查询的气象台以黄色和红色小点在地图上表示。

将鼠标移到小点上方,可查看气象台名称。

然后点击查看天气观测和预报。

如需切换地图:点击带黑十字的绿色按钮放大地图;点击带横线的绿色按钮缩小地图;或者点击绿色箭头查看邻近地区的地图。


METAR-TAF: